createdAt,value
2019-02-08T00:00:58.560Z,5.67
2019-02-08T00:01:58.544Z,5.60
2019-02-08T00:02:58.557Z,5.52
2019-02-08T00:03:58.521Z,5.66
2019-02-08T00:04:58.520Z,5.59
2019-02-08T00:05:58.504Z,5.56
2019-02-08T00:06:58.482Z,5.56
2019-02-08T00:07:58.496Z,5.63
2019-02-08T00:08:58.490Z,5.55
2019-02-08T00:09:58.462Z,5.59
2019-02-08T00:10:58.440Z,5.60
2019-02-08T00:11:58.441Z,5.52
2019-02-08T00:12:58.421Z,5.60
2019-02-08T00:13:58.414Z,5.60
2019-02-08T00:14:58.430Z,5.59
2019-02-08T00:15:58.408Z,5.55
2019-02-08T00:16:58.387Z,5.56
2019-02-08T00:17:58.379Z,5.52
2019-02-08T00:18:58.423Z,5.56
2019-02-08T00:19:58.353Z,5.56
2019-02-08T00:20:58.360Z,5.52
2019-02-08T00:21:58.339Z,5.51
2019-02-08T00:22:58.325Z,5.56
2019-02-08T00:23:58.304Z,5.56
2019-02-08T00:24:58.335Z,5.48
2019-02-08T00:25:58.300Z,5.55
2019-02-08T00:26:58.283Z,5.49
2019-02-08T00:27:58.263Z,5.49
2019-02-08T00:28:58.262Z,5.58
2019-02-08T00:29:58.257Z,5.49
2019-02-08T00:30:58.322Z,5.48
2019-02-08T00:31:58.232Z,5.51
2019-02-08T00:32:58.265Z,5.47
2019-02-08T00:33:58.209Z,5.49
2019-02-08T00:34:58.184Z,5.52
2019-02-08T00:35:58.208Z,5.49
2019-02-08T00:36:58.162Z,5.56
2019-02-08T00:37:58.171Z,5.55
2019-02-08T00:38:58.176Z,5.60
2019-02-08T00:39:58.140Z,5.56
2019-02-08T00:40:58.126Z,5.60
2019-02-08T00:41:58.134Z,5.56
2019-02-08T00:42:58.101Z,5.58
2019-02-08T00:43:58.101Z,5.58
2019-02-08T00:44:58.083Z,5.59
2019-02-08T00:45:58.079Z,5.60
2019-02-08T00:46:58.117Z,5.55
2019-02-08T00:47:58.053Z,5.59
2019-02-08T00:48:58.049Z,5.59
2019-02-08T00:49:58.042Z,5.58
2019-02-08T00:50:58.032Z,5.59
2019-02-08T00:51:58.030Z,5.65
2019-02-08T00:52:57.999Z,5.60
2019-02-08T00:53:57.988Z,5.52
2019-02-08T00:54:57.996Z,5.67
2019-02-08T00:55:57.970Z,5.69
2019-02-08T00:56:57.980Z,5.59
2019-02-08T00:57:57.948Z,5.73
2019-02-08T00:58:57.945Z,5.70
2019-02-08T00:59:57.939Z,5.58
2019-02-08T01:00:57.917Z,5.66
2019-02-08T01:01:57.936Z,5.75
2019-02-08T01:02:57.899Z,5.66
2019-02-08T01:03:57.903Z,5.63
2019-02-08T01:04:57.866Z,5.65
2019-02-08T01:05:57.854Z,5.74
2019-02-08T01:06:57.853Z,5.74
2019-02-08T01:07:57.870Z,5.74
2019-02-08T01:08:57.836Z,5.74
2019-02-08T01:09:57.826Z,5.63
2019-02-08T01:10:57.813Z,5.70
2019-02-08T01:11:57.796Z,5.74
2019-02-08T01:12:57.788Z,5.74
2019-02-08T01:13:57.798Z,5.78
2019-02-08T01:14:57.763Z,5.75
2019-02-08T01:15:57.773Z,5.77
2019-02-08T01:16:57.745Z,5.67
2019-02-08T01:17:57.754Z,5.73
2019-02-08T01:18:57.732Z,5.67
2019-02-08T01:19:57.744Z,5.81
2019-02-08T01:20:57.723Z,5.77
2019-02-08T01:21:57.685Z,5.74
2019-02-08T01:22:57.677Z,5.74
2019-02-08T01:23:57.663Z,5.81
2019-02-08T01:24:57.660Z,5.80
2019-02-08T01:25:57.691Z,5.75
2019-02-08T01:26:57.648Z,5.87
2019-02-08T01:27:57.631Z,5.78
2019-02-08T01:28:57.622Z,5.78
2019-02-08T01:29:57.603Z,5.80
2019-02-08T01:30:57.614Z,5.88
2019-02-08T01:31:57.589Z,5.88
2019-02-08T01:32:57.592Z,5.78
2019-02-08T01:33:57.560Z,5.88
2019-02-08T01:34:57.560Z,5.85
2019-02-08T01:35:57.571Z,5.87
2019-02-08T01:36:57.547Z,5.83
2019-02-08T01:37:57.524Z,5.85
2019-02-08T01:38:57.511Z,5.90
2019-02-08T01:39:57.514Z,5.85
2019-02-08T01:40:57.504Z,5.90
2019-02-08T01:41:57.514Z,5.88
2019-02-08T01:42:57.462Z,5.85
2019-02-08T01:43:57.451Z,5.87
2019-02-08T01:44:57.442Z,5.87
2019-02-08T01:45:57.445Z,5.87
2019-02-08T01:46:57.431Z,5.90
2019-02-08T01:47:57.435Z,5.69
2019-02-08T01:48:57.411Z,5.92
2019-02-08T01:49:57.387Z,5.85
2019-02-08T01:50:57.378Z,5.88
2019-02-08T01:51:57.364Z,5.92
2019-02-08T01:52:57.376Z,5.92
2019-02-08T01:53:57.352Z,5.95
2019-02-08T01:54:57.354Z,5.93
2019-02-08T01:55:57.332Z,5.93
2019-02-08T01:56:57.323Z,5.96
2019-02-08T01:57:57.319Z,5.93
2019-02-08T01:58:57.300Z,5.99
2019-02-08T01:59:57.298Z,5.95
2019-02-08T02:00:57.274Z,5.95
2019-02-08T02:01:57.269Z,5.90
2019-02-08T02:02:57.308Z,5.88
2019-02-08T02:03:57.241Z,5.90
2019-02-08T02:04:57.233Z,6.03
2019-02-08T02:05:57.230Z,5.87
2019-02-08T02:06:57.214Z,6.01
2019-02-08T02:07:57.199Z,5.93
2019-02-08T02:08:57.219Z,5.93
2019-02-08T02:09:57.184Z,5.95
2019-02-08T02:10:57.178Z,5.93
2019-02-08T02:11:57.157Z,5.90
2019-02-08T02:12:57.173Z,5.88
2019-02-08T02:13:57.149Z,5.90
2019-02-08T02:14:57.120Z,5.98
2019-02-08T02:15:57.117Z,5.90
2019-02-08T02:16:57.112Z,5.96
2019-02-08T02:17:57.103Z,5.93
2019-02-08T02:18:57.122Z,5.93
2019-02-08T02:19:57.112Z,5.92
2019-02-08T02:20:57.094Z,5.99
2019-02-08T02:21:57.049Z,6.03
2019-02-08T02:22:57.054Z,5.93
2019-02-08T02:23:57.039Z,5.93
2019-02-08T02:24:57.068Z,5.93
2019-02-08T02:25:57.006Z,5.95
2019-02-08T02:26:56.992Z,5.98
2019-02-08T02:27:56.997Z,5.88
2019-02-08T02:28:56.983Z,5.88
2019-02-08T02:29:56.969Z,5.99
2019-02-08T02:30:56.978Z,5.96
2019-02-08T02:31:56.945Z,5.90
2019-02-08T02:32:56.932Z,5.90
2019-02-08T02:33:56.923Z,5.96
2019-02-08T02:34:56.913Z,5.92
2019-02-08T02:35:56.918Z,5.90
2019-02-08T02:36:56.905Z,5.92
2019-02-08T02:37:56.896Z,5.87
2019-02-08T02:38:56.881Z,5.93
2019-02-08T02:39:56.865Z,5.93
2019-02-08T02:40:56.870Z,5.93
2019-02-08T02:41:56.851Z,5.84
2019-02-08T02:42:56.825Z,5.88
2019-02-08T02:43:56.811Z,5.90
2019-02-08T02:44:56.808Z,5.90
2019-02-08T02:45:56.797Z,5.92
2019-02-08T02:46:56.807Z,5.87
2019-02-08T02:47:56.796Z,5.98
2019-02-08T02:48:56.766Z,5.95
2019-02-08T02:49:56.760Z,5.95
2019-02-08T02:50:56.749Z,6.03
2019-02-08T02:51:56.745Z,5.88
2019-02-08T02:52:56.731Z,5.93
2019-02-08T02:54:04.478Z,5.90
2019-02-08T02:54:57.716Z,5.90
2019-02-08T02:55:56.688Z,6.03
2019-02-08T02:56:56.716Z,5.93
2019-02-08T02:57:56.678Z,5.88
2019-02-08T02:58:56.667Z,5.90
2019-02-08T02:59:56.650Z,6.03
2019-02-08T03:00:56.636Z,6.01
2019-02-08T03:01:56.646Z,6.03
2019-02-08T03:02:56.642Z,6.03
2019-02-08T03:03:56.608Z,6.02
2019-02-08T03:04:56.604Z,6.02
2019-02-08T03:05:56.587Z,6.05
2019-02-08T03:06:56.569Z,5.98
2019-02-08T03:07:56.561Z,5.96
2019-02-08T03:08:56.573Z,6.01
2019-02-08T03:09:56.553Z,6.01
2019-02-08T03:10:56.529Z,6.03
2019-02-08T03:11:56.521Z,6.01
2019-02-08T03:12:56.506Z,5.95
2019-02-08T03:13:56.515Z,6.05
2019-02-08T03:14:56.486Z,5.96
2019-02-08T03:15:56.490Z,6.01
2019-02-08T03:16:56.484Z,6.03
2019-02-08T03:17:56.450Z,5.99
2019-02-08T03:18:56.465Z,6.01
2019-02-08T03:19:56.426Z,5.99
2019-02-08T03:20:56.420Z,6.02
2019-02-08T03:21:56.411Z,6.01
2019-02-08T03:22:56.414Z,5.92
2019-02-08T03:23:56.395Z,5.93
2019-02-08T03:24:56.417Z,5.96
2019-02-08T03:25:56.359Z,6.03
2019-02-08T03:26:56.359Z,5.96
2019-02-08T03:27:56.357Z,5.95
2019-02-08T03:28:56.329Z,5.95
2019-02-08T03:29:56.342Z,6.01
2019-02-08T03:30:56.325Z,5.98
2019-02-08T03:31:56.303Z,5.96
2019-02-08T03:32:56.292Z,6.01
2019-02-08T03:33:56.297Z,6.02
2019-02-08T03:34:56.296Z,6.06
2019-02-08T03:35:56.255Z,5.96
2019-02-08T03:36:56.247Z,5.96
2019-02-08T03:37:56.516Z,6.01
2019-02-08T03:38:56.239Z,5.85
2019-02-08T03:39:56.219Z,6.02
2019-02-08T03:40:56.262Z,6.02
2019-02-08T03:41:56.188Z,5.99
2019-02-08T03:42:56.192Z,6.03
2019-02-08T03:43:56.176Z,6.02
2019-02-08T03:44:56.166Z,5.96
2019-02-08T03:45:56.176Z,5.99
2019-02-08T03:46:56.143Z,5.96
2019-02-08T03:47:56.137Z,5.95
2019-02-08T03:48:56.128Z,6.02
2019-02-08T03:49:56.110Z,6.08
2019-02-08T03:50:56.116Z,6.05
2019-02-08T03:51:56.094Z,5.96
2019-02-08T03:52:56.098Z,6.05
2019-02-08T03:53:56.064Z,5.93
2019-02-08T03:54:56.061Z,5.98
2019-02-08T03:55:58.265Z,5.99
2019-02-08T03:56:56.059Z,6.03
2019-02-08T03:57:56.035Z,6.02
2019-02-08T03:58:56.017Z,6.01
2019-02-08T03:59:55.997Z,6.01
2019-02-08T04:00:55.989Z,6.02
2019-02-08T04:01:55.996Z,5.99
2019-02-08T04:02:56.094Z,6.01
2019-02-08T04:03:55.957Z,5.92
2019-02-08T04:04:55.947Z,5.93
2019-02-08T04:05:55.950Z,6.01
2019-02-08T04:06:55.926Z,5.96
2019-02-08T04:07:55.929Z,5.87
2019-02-08T04:08:55.933Z,5.92
2019-02-08T04:09:55.895Z,5.87
2019-02-08T04:10:55.888Z,5.85
2019-02-08T04:11:55.873Z,5.87
2019-02-08T04:12:55.873Z,5.87
2019-02-08T04:13:55.856Z,5.85
2019-02-08T04:14:55.873Z,5.85
2019-02-08T04:15:55.836Z,5.92
2019-02-08T04:16:55.812Z,5.85
2019-02-08T04:17:55.804Z,5.92
2019-02-08T04:18:55.802Z,5.81
2019-02-08T04:19:55.806Z,5.78
2019-02-08T04:20:55.775Z,5.77
2019-02-08T04:21:55.765Z,5.78
2019-02-08T04:22:55.764Z,5.83
2019-02-08T04:23:55.746Z,5.80
2019-02-08T04:24:55.763Z,5.88
2019-02-08T04:25:55.731Z,5.78
2019-02-08T04:26:55.726Z,5.78
2019-02-08T04:27:55.707Z,5.84
2019-02-08T04:28:55.767Z,5.81
2019-02-08T04:29:55.681Z,5.81
2019-02-08T04:30:55.691Z,5.80
2019-02-08T04:31:55.659Z,5.73
2019-02-08T04:32:55.651Z,5.70
2019-02-08T04:33:55.695Z,5.75
2019-02-08T04:34:55.636Z,5.67
2019-02-08T04:35:55.618Z,5.74
2019-02-08T04:36:55.638Z,5.78
2019-02-08T04:37:55.595Z,5.69
2019-02-08T04:38:55.580Z,5.73
2019-02-08T04:39:55.568Z,5.74
2019-02-08T04:40:55.573Z,5.75
2019-02-08T04:41:55.555Z,5.63
2019-02-08T04:42:55.572Z,5.70
2019-02-08T04:43:55.538Z,5.73
2019-02-08T04:44:55.519Z,5.70
2019-02-08T04:45:55.511Z,5.77
2019-02-08T04:46:55.506Z,5.77
2019-02-08T04:47:55.490Z,5.77
2019-02-08T04:48:55.494Z,5.78
2019-02-08T04:49:55.471Z,5.88
2019-02-08T04:50:55.459Z,5.90
2019-02-08T04:51:55.446Z,5.90
2019-02-08T04:52:55.441Z,5.92
2019-02-08T04:53:55.446Z,5.87
2019-02-08T04:54:55.424Z,5.87
2019-02-08T04:55:55.407Z,5.87
2019-02-08T04:56:55.391Z,5.90
2019-02-08T04:57:55.437Z,5.87
2019-02-08T04:58:55.372Z,5.83
2019-02-08T04:59:55.383Z,5.90
2019-02-08T05:00:55.350Z,5.87
2019-02-08T05:01:55.339Z,5.88
2019-02-08T05:02:55.323Z,6.01
2019-02-08T05:03:55.334Z,5.90
2019-02-08T05:04:55.304Z,5.96
2019-02-08T05:05:55.324Z,5.99
2019-02-08T05:06:55.285Z,5.99
2019-02-08T05:07:55.270Z,5.88
2019-02-08T05:08:55.268Z,6.02
2019-02-08T05:09:55.258Z,5.99
2019-02-08T05:10:55.244Z,5.99
2019-02-08T05:11:55.247Z,5.98
2019-02-08T05:12:55.215Z,5.96
2019-02-08T05:13:55.208Z,6.02
2019-02-08T05:14:55.223Z,5.98
2019-02-08T05:15:55.221Z,5.98
2019-02-08T05:16:55.208Z,6.03
2019-02-08T05:17:55.177Z,5.98
2019-02-08T05:18:55.158Z,6.03
2019-02-08T05:19:55.158Z,5.99
2019-02-08T05:20:55.134Z,6.06
2019-02-08T05:21:55.131Z,5.93
2019-02-08T05:22:55.132Z,6.01
2019-02-08T05:23:55.108Z,6.05
2019-02-08T05:24:55.098Z,6.03
2019-02-08T05:25:55.086Z,5.99
2019-02-08T05:26:55.069Z,6.03
2019-02-08T05:27:55.073Z,5.99
2019-02-08T05:28:55.064Z,6.03
2019-02-08T05:29:55.050Z,6.11
2019-02-08T05:30:55.023Z,6.05
2019-02-08T05:31:55.016Z,6.05
2019-02-08T05:32:55.009Z,6.01
2019-02-08T05:33:55.021Z,6.10
2019-02-08T05:34:54.996Z,6.10
2019-02-08T05:35:54.979Z,5.96
2019-02-08T05:36:54.965Z,5.96
2019-02-08T05:37:54.947Z,6.08
2019-02-08T05:38:54.955Z,6.05
2019-02-08T05:39:54.971Z,6.10
2019-02-08T05:40:54.927Z,6.03
2019-02-08T05:41:54.911Z,6.10
2019-02-08T05:42:54.921Z,6.14
2019-02-08T05:43:54.882Z,6.03
2019-02-08T05:44:54.870Z,6.06
2019-02-08T05:45:54.896Z,5.98
2019-02-08T05:46:54.875Z,6.13
2019-02-08T05:47:54.845Z,6.05
2019-02-08T05:48:54.837Z,6.02
2019-02-08T05:49:54.815Z,6.02
2019-02-08T05:50:54.813Z,6.10
2019-02-08T05:51:54.841Z,6.03
2019-02-08T05:52:54.807Z,5.96
2019-02-08T05:53:54.785Z,6.05
2019-02-08T05:54:54.769Z,6.03
2019-02-08T05:55:54.753Z,6.10
2019-02-08T05:56:54.748Z,6.08
2019-02-08T05:57:54.765Z,6.03
2019-02-08T05:58:54.734Z,6.02
2019-02-08T05:59:54.758Z,6.03
2019-02-08T06:00:54.702Z,5.96
2019-02-08T06:01:54.691Z,6.01
2019-02-08T06:02:54.772Z,6.08
2019-02-08T06:03:54.788Z,6.10
2019-02-08T06:04:54.665Z,6.05
2019-02-08T06:05:54.669Z,6.11
2019-02-08T06:06:54.653Z,6.08
2019-02-08T06:07:54.635Z,6.03
2019-02-08T06:08:54.624Z,6.08
2019-02-08T06:09:54.682Z,6.03
2019-02-08T06:10:54.620Z,6.03
2019-02-08T06:11:54.598Z,6.03
2019-02-08T06:12:54.570Z,6.05
2019-02-08T06:13:54.569Z,6.08
2019-02-08T06:14:54.559Z,6.01
2019-02-08T06:15:54.571Z,6.13
2019-02-08T06:16:54.543Z,6.11
2019-02-08T06:17:54.545Z,6.10
2019-02-08T06:18:54.505Z,6.10
2019-02-08T06:19:54.494Z,6.03
2019-02-08T06:20:54.509Z,6.02
2019-02-08T06:21:54.504Z,6.11
2019-02-08T06:22:54.481Z,6.03
2019-02-08T06:23:54.458Z,6.01
2019-02-08T06:25:02.887Z,6.05
2019-02-08T06:25:55.455Z,6.10
2019-02-08T06:26:54.426Z,6.10
2019-02-08T06:27:54.436Z,5.99
2019-02-08T06:28:54.409Z,5.99
2019-02-08T06:29:54.391Z,6.06
2019-02-08T06:30:54.384Z,6.06
2019-02-08T06:31:54.376Z,5.99
2019-02-08T06:32:54.361Z,6.03
2019-02-08T06:33:54.388Z,6.14
2019-02-08T06:34:54.350Z,5.95
2019-02-08T06:35:54.351Z,6.10
2019-02-08T06:36:54.319Z,6.14
2019-02-08T06:37:54.307Z,6.11
2019-02-08T06:38:54.330Z,5.98
2019-02-08T06:39:54.384Z,5.95
2019-02-08T06:40:54.312Z,6.03
2019-02-08T06:41:54.263Z,6.01
2019-02-08T06:42:54.259Z,5.98
2019-02-08T06:43:54.244Z,6.10
2019-02-08T06:44:54.239Z,5.99
2019-02-08T06:45:54.287Z,6.10
2019-02-08T06:46:54.238Z,6.13
2019-02-08T06:47:54.199Z,6.05
2019-02-08T06:48:54.183Z,5.98
2019-02-08T06:49:54.187Z,5.93
2019-02-08T06:50:54.262Z,6.05
2019-02-08T06:51:54.189Z,6.03
2019-02-08T06:52:54.141Z,6.08
2019-02-08T06:53:54.162Z,6.08
2019-02-08T06:54:54.118Z,6.03
2019-02-08T06:55:54.212Z,6.17
2019-02-08T06:56:54.165Z,6.10
2019-02-08T06:57:54.107Z,6.03
2019-02-08T06:58:54.093Z,5.99
2019-02-08T06:59:54.075Z,6.16
2019-02-08T07:00:54.061Z,5.99
2019-02-08T07:01:54.056Z,5.96
2019-02-08T07:02:54.072Z,6.01
2019-02-08T07:03:54.119Z,5.96
2019-02-08T07:04:54.032Z,6.11
2019-02-08T07:05:54.014Z,6.14
2019-02-08T07:06:53.992Z,6.11
2019-02-08T07:07:53.989Z,5.99
2019-02-08T07:08:54.000Z,6.08
2019-02-08T07:09:53.972Z,5.96
2019-02-08T07:10:53.990Z,5.95
2019-02-08T07:11:53.949Z,5.98
2019-02-08T07:12:53.959Z,6.02
2019-02-08T07:13:53.937Z,5.95
2019-02-08T07:14:53.937Z,6.02
2019-02-08T07:15:53.900Z,6.01
2019-02-08T07:16:53.891Z,6.01
2019-02-08T07:17:53.873Z,6.08
2019-02-08T07:18:53.924Z,6.05
2019-02-08T07:19:53.864Z,5.99
2019-02-08T07:20:53.851Z,5.96
2019-02-08T07:21:53.836Z,5.98
2019-02-08T07:22:53.842Z,6.02
2019-02-08T07:23:53.831Z,6.02
2019-02-08T07:24:53.832Z,5.93
2019-02-08T07:25:53.793Z,5.96
2019-02-08T07:26:53.811Z,5.93
2019-02-08T07:27:53.843Z,5.93
2019-02-08T07:28:53.774Z,5.99
2019-02-08T07:29:53.754Z,5.99
2019-02-08T07:30:53.769Z,5.99
2019-02-08T07:31:53.744Z,5.93
2019-02-08T07:32:53.714Z,6.01
2019-02-08T07:33:53.751Z,6.01
2019-02-08T07:34:53.696Z,6.01
2019-02-08T07:35:53.732Z,6.06
2019-02-08T07:36:53.689Z,5.93
2019-02-08T07:37:53.668Z,5.99
2019-02-08T07:38:53.690Z,5.98
2019-02-08T07:39:53.645Z,5.98
2019-02-08T07:40:53.633Z,5.98
2019-02-08T07:41:53.646Z,5.87
2019-02-08T07:42:53.622Z,6.01
2019-02-08T07:43:53.596Z,5.93
2019-02-08T07:44:53.617Z,6.01
2019-02-08T07:45:53.579Z,5.99
2019-02-08T07:46:53.561Z,5.93
2019-02-08T07:47:53.617Z,5.93
2019-02-08T07:48:53.557Z,5.96
2019-02-08T07:49:53.531Z,5.93
2019-02-08T07:50:53.524Z,6.02
2019-02-08T07:51:53.560Z,5.96
2019-02-08T07:52:53.506Z,6.02
2019-02-08T07:53:53.503Z,6.05
2019-02-08T07:54:53.475Z,6.05
2019-02-08T07:55:53.487Z,5.98
2019-02-08T07:56:53.454Z,5.98
2019-02-08T07:57:53.473Z,6.05
2019-02-08T07:58:53.435Z,6.08
2019-02-08T07:59:53.433Z,6.02
2019-02-08T08:00:53.432Z,5.99
2019-02-08T08:01:53.400Z,6.01
2019-02-08T08:02:53.392Z,5.98
2019-02-08T08:04:01.047Z,5.98
2019-02-08T08:04:54.377Z,6.08
2019-02-08T08:05:53.367Z,6.10
2019-02-08T08:06:53.369Z,6.02
2019-02-08T08:07:53.381Z,5.99
2019-02-08T08:08:53.397Z,5.95
2019-02-08T08:09:53.324Z,6.05
2019-02-08T08:10:53.326Z,5.96
2019-02-08T08:11:53.308Z,6.05
2019-02-08T08:12:53.288Z,6.11
2019-02-08T08:13:53.286Z,6.02
2019-02-08T08:14:53.295Z,6.13
2019-02-08T08:15:53.297Z,6.06
2019-02-08T08:16:53.299Z,6.06
2019-02-08T08:17:53.246Z,6.06
2019-02-08T08:18:53.232Z,6.19
2019-02-08T08:19:53.235Z,6.06
2019-02-08T08:20:53.197Z,6.14
2019-02-08T08:21:53.236Z,6.08
2019-02-08T08:22:53.189Z,6.14
2019-02-08T08:23:53.167Z,6.06
2019-02-08T08:24:53.161Z,6.14
2019-02-08T08:25:53.185Z,6.13
2019-02-08T08:26:53.141Z,6.06
2019-02-08T08:27:53.210Z,6.14
2019-02-08T08:28:53.116Z,6.14
2019-02-08T08:29:53.126Z,6.06
2019-02-08T08:30:53.095Z,6.17
2019-02-08T08:31:53.138Z,6.14
2019-02-08T08:32:53.078Z,6.17
2019-02-08T08:33:53.066Z,6.14
2019-02-08T08:34:53.060Z,6.19
2019-02-08T08:35:53.054Z,6.14
2019-02-08T08:36:53.047Z,6.06
2019-02-08T08:37:53.058Z,6.14
2019-02-08T08:38:53.005Z,6.19
2019-02-08T08:39:52.999Z,6.11
2019-02-08T08:40:52.996Z,6.14
2019-02-08T08:41:52.996Z,6.06
2019-02-08T08:42:52.964Z,6.11
2019-02-08T08:43:53.007Z,6.13
2019-02-08T08:44:52.944Z,6.14
2019-02-08T08:45:52.932Z,6.16
2019-02-08T08:46:52.929Z,6.10
2019-02-08T08:47:52.919Z,6.13
2019-02-08T08:48:52.896Z,6.11
2019-02-08T08:49:52.953Z,6.20
2019-02-08T08:50:52.875Z,6.17
2019-02-08T08:51:52.868Z,6.16
2019-02-08T08:52:52.856Z,6.20
2019-02-08T08:53:52.907Z,6.27
2019-02-08T08:54:52.864Z,6.19
2019-02-08T08:55:52.827Z,6.28
2019-02-08T08:56:52.811Z,6.24
2019-02-08T08:57:52.803Z,6.27
2019-02-08T08:58:52.794Z,6.33
2019-02-08T08:59:52.780Z,6.32
2019-02-08T09:00:52.787Z,6.32
2019-02-08T09:01:52.771Z,6.27
2019-02-08T09:02:52.802Z,6.27
2019-02-08T09:03:52.751Z,6.32
2019-02-08T09:04:52.727Z,6.30
2019-02-08T09:05:52.742Z,6.28
2019-02-08T09:06:52.708Z,6.35
2019-02-08T09:07:52.739Z,6.27
2019-02-08T09:08:52.689Z,6.36
2019-02-08T09:09:52.683Z,6.33
2019-02-08T09:10:52.676Z,6.38
2019-02-08T09:11:52.694Z,6.42
2019-02-08T09:12:52.642Z,6.38
2019-02-08T09:13:52.629Z,6.39
2019-02-08T09:14:52.628Z,6.36
2019-02-08T09:15:52.621Z,6.43
2019-02-08T09:16:52.645Z,6.40
2019-02-08T09:17:52.638Z,6.43
2019-02-08T09:18:52.579Z,6.48
2019-02-08T09:19:52.570Z,6.40
2019-02-08T09:20:52.564Z,6.40
2019-02-08T09:21:52.583Z,6.50
2019-02-08T09:22:52.565Z,6.33
2019-02-08T09:23:52.536Z,6.50
2019-02-08T09:24:52.515Z,6.38
2019-02-08T09:25:52.501Z,6.36
2019-02-08T09:26:52.503Z,6.40
2019-02-08T09:27:52.477Z,6.40
2019-02-08T09:28:52.498Z,6.38
2019-02-08T09:29:52.462Z,6.40
2019-02-08T09:30:52.452Z,6.35
2019-02-08T09:31:52.437Z,6.42
2019-02-08T09:32:52.461Z,6.43
2019-02-08T09:33:52.436Z,6.43
2019-02-08T09:34:52.444Z,6.40
2019-02-08T09:35:52.394Z,6.46
2019-02-08T09:36:52.375Z,6.38
2019-02-08T09:37:52.365Z,6.38
2019-02-08T09:38:52.375Z,6.43
2019-02-08T09:39:52.360Z,6.43
2019-02-08T09:40:52.349Z,6.40
2019-02-08T09:41:52.331Z,6.48
2019-02-08T09:42:52.322Z,6.39
2019-02-08T09:43:52.311Z,6.36
2019-02-08T09:44:52.298Z,6.39
2019-02-08T09:45:52.302Z,6.36
2019-02-08T09:46:52.268Z,6.39
2019-02-08T09:47:52.254Z,6.40
2019-02-08T09:48:52.253Z,6.38
2019-02-08T09:49:52.243Z,6.38
2019-02-08T09:50:52.226Z,6.40
2019-02-08T09:51:52.263Z,6.38
2019-02-08T09:52:52.254Z,6.38
2019-02-08T09:53:52.223Z,6.40
2019-02-08T09:54:52.189Z,6.36
2019-02-08T09:55:57.619Z,6.40
2019-02-08T09:56:53.183Z,6.38
2019-02-08T09:57:52.155Z,6.36
2019-02-08T09:58:52.135Z,6.38
2019-02-08T09:59:52.134Z,6.43
2019-02-08T10:00:52.129Z,6.39
2019-02-08T10:01:52.113Z,6.45
2019-02-08T10:02:52.127Z,6.48
2019-02-08T10:03:52.088Z,6.51
2019-02-08T10:04:52.085Z,6.45
2019-02-08T10:05:52.075Z,6.45
2019-02-08T10:06:52.101Z,6.50
2019-02-08T10:07:52.065Z,6.58
2019-02-08T10:08:52.086Z,6.53
2019-02-08T10:09:52.021Z,6.54
2019-02-08T10:10:52.037Z,6.48
2019-02-08T10:11:52.003Z,6.50
2019-02-08T10:12:52.001Z,6.50
2019-02-08T10:13:52.003Z,6.57
2019-02-08T10:14:52.002Z,6.53
2019-02-08T10:15:51.949Z,6.55
2019-02-08T10:16:51.943Z,6.54
2019-02-08T10:17:51.939Z,6.50
2019-02-08T10:18:51.956Z,6.54
2019-02-08T10:19:51.910Z,6.57
2019-02-08T10:20:51.974Z,6.61
2019-02-08T10:21:51.898Z,6.48
2019-02-08T10:22:51.876Z,6.55
2019-02-08T10:23:51.872Z,6.53
2019-02-08T10:24:51.894Z,6.60
2019-02-08T10:25:51.898Z,6.50
2019-02-08T10:26:51.899Z,6.50
2019-02-08T10:27:51.824Z,6.54
2019-02-08T10:28:51.816Z,6.54
2019-02-08T10:29:51.817Z,6.64
2019-02-08T10:30:51.836Z,6.64
2019-02-08T10:31:51.774Z,6.69
2019-02-08T10:32:51.794Z,6.69
2019-02-08T10:33:51.780Z,6.69
2019-02-08T10:34:51.747Z,6.65
2019-02-08T10:35:51.742Z,6.71
2019-02-08T10:36:51.732Z,6.68
2019-02-08T10:37:51.715Z,6.65
2019-02-08T10:38:51.716Z,6.72
2019-02-08T10:39:51.697Z,6.68
2019-02-08T10:40:51.731Z,6.68
2019-02-08T10:41:51.673Z,6.68
2019-02-08T10:42:51.668Z,6.71
2019-02-08T10:43:51.694Z,6.68
2019-02-08T10:44:51.645Z,6.68
2019-02-08T10:45:51.631Z,6.75
2019-02-08T10:46:51.627Z,6.68
2019-02-08T10:47:51.842Z,6.76
2019-02-08T10:48:51.630Z,6.76
2019-02-08T10:49:51.638Z,6.81
2019-02-08T10:50:51.586Z,6.78
2019-02-08T10:51:51.603Z,6.78
2019-02-08T10:52:51.567Z,6.78
2019-02-08T10:53:53.213Z,6.76
2019-02-08T10:54:51.533Z,6.81
2019-02-08T10:55:51.583Z,6.78
2019-02-08T10:56:51.517Z,6.87
2019-02-08T10:57:51.550Z,6.81
2019-02-08T10:58:51.557Z,6.83
2019-02-08T10:59:51.479Z,6.94
2019-02-08T11:00:51.463Z,6.93
2019-02-08T11:01:51.483Z,6.90
2019-02-08T11:02:52.435Z,6.91
2019-02-08T11:03:51.440Z,6.91
2019-02-08T11:04:51.446Z,6.89
2019-02-08T11:05:51.434Z,6.81
2019-02-08T11:06:51.468Z,6.91
2019-02-08T11:07:51.389Z,6.94
2019-02-08T11:08:51.384Z,6.89
2019-02-08T11:09:51.384Z,6.91
2019-02-08T11:10:51.355Z,6.94
2019-02-08T11:11:51.349Z,6.96
2019-02-08T11:12:51.365Z,7.00
2019-02-08T11:13:51.391Z,6.91
2019-02-08T11:14:51.316Z,6.99
2019-02-08T11:15:51.320Z,6.99
2019-02-08T11:16:51.497Z,7.05
2019-02-08T11:17:51.275Z,7.00
2019-02-08T11:18:51.299Z,6.99
2019-02-08T11:19:51.256Z,6.99
2019-02-08T11:20:51.258Z,7.00
2019-02-08T11:21:51.267Z,6.99
2019-02-08T11:22:51.251Z,7.07
2019-02-08T11:23:51.218Z,7.05
2019-02-08T11:24:51.228Z,7.01
2019-02-08T11:25:51.194Z,7.09
2019-02-08T11:26:51.185Z,7.04
2019-02-08T11:27:51.192Z,7.09
2019-02-08T11:28:51.159Z,7.14
2019-02-08T11:29:51.218Z,7.14
2019-02-08T11:30:51.140Z,7.16
2019-02-08T11:31:51.160Z,7.14
2019-02-08T11:32:51.173Z,7.21
2019-02-08T11:33:51.132Z,7.18
2019-02-08T11:34:51.136Z,7.18
2019-02-08T11:35:51.092Z,7.15
2019-02-08T11:36:51.090Z,7.14
2019-02-08T11:37:51.917Z,7.24
2019-02-08T11:38:51.054Z,7.23
2019-02-08T11:39:51.061Z,7.21
2019-02-08T11:40:51.092Z,7.23
2019-02-08T11:41:51.020Z,7.27
2019-02-08T11:42:51.914Z,7.21
2019-02-08T11:43:51.042Z,7.34
2019-02-08T11:44:51.029Z,7.23
2019-02-08T11:45:52.317Z,7.16
2019-02-08T11:46:51.924Z,7.30
2019-02-08T11:47:50.985Z,7.29
2019-02-08T11:48:50.932Z,7.34
2019-02-08T11:49:50.940Z,7.32
2019-02-08T11:50:50.945Z,7.32
2019-02-08T11:51:50.915Z,7.30
2019-02-08T11:52:50.958Z,7.32
2019-02-08T11:53:51.416Z,7.33
2019-02-08T11:54:50.878Z,7.30
2019-02-08T11:55:50.909Z,7.36
2019-02-08T11:56:50.891Z,7.33
2019-02-08T11:57:50.837Z,7.37
2019-02-08T11:58:51.522Z,7.37
2019-02-08T11:59:50.851Z,7.37
2019-02-08T12:00:50.876Z,7.39
2019-02-08T12:01:51.074Z,7.44
2019-02-08T12:02:50.785Z,7.41
2019-02-08T12:03:50.820Z,7.47
2019-02-08T12:04:50.764Z,7.50
2019-02-08T12:05:50.744Z,7.45
2019-02-08T12:06:50.744Z,7.34
2019-02-08T12:07:50.765Z,7.37
2019-02-08T12:08:50.721Z,7.37
2019-02-08T12:09:50.727Z,7.36
2019-02-08T12:10:50.699Z,7.54
2019-02-08T12:11:50.684Z,7.39
2019-02-08T12:12:50.678Z,7.39
2019-02-08T12:13:50.659Z,7.39
2019-02-08T12:14:50.649Z,7.45
2019-02-08T12:15:50.652Z,7.37
2019-02-08T12:16:50.618Z,7.42
2019-02-08T12:17:50.613Z,7.51
2019-02-08T12:18:50.611Z,7.47
2019-02-08T12:19:50.589Z,7.55
2019-02-08T12:20:50.590Z,7.52
2019-02-08T12:21:50.567Z,7.55
2019-02-08T12:22:50.580Z,7.54
2019-02-08T12:23:50.548Z,7.55
2019-02-08T12:24:50.538Z,7.55
2019-02-08T12:25:50.556Z,7.57
2019-02-08T12:26:50.514Z,7.55
2019-02-08T12:27:50.503Z,7.55
2019-02-08T12:28:50.521Z,7.63
2019-02-08T12:29:50.484Z,7.58
2019-02-08T12:30:50.464Z,7.67
2019-02-08T12:31:50.515Z,7.67
2019-02-08T12:32:50.447Z,7.67
2019-02-08T12:33:50.438Z,7.69
2019-02-08T12:34:50.429Z,7.74
2019-02-08T12:35:50.429Z,7.76
2019-02-08T12:36:50.428Z,7.73
2019-02-08T12:37:50.389Z,7.76
2019-02-08T12:38:50.382Z,7.74
2019-02-08T12:39:50.413Z,7.76
2019-02-08T12:40:50.374Z,7.77
2019-02-08T12:41:50.388Z,7.79
2019-02-08T12:42:50.333Z,7.77
2019-02-08T12:43:50.379Z,7.77
2019-02-08T12:44:50.314Z,7.74
2019-02-08T12:45:50.310Z,7.74
2019-02-08T12:46:50.314Z,7.77
2019-02-08T12:47:50.297Z,7.70
2019-02-08T12:48:50.272Z,7.73
2019-02-08T12:49:50.260Z,7.69
2019-02-08T12:50:50.244Z,7.77
2019-02-08T12:51:50.268Z,7.73
2019-02-08T12:52:50.256Z,7.77
2019-02-08T12:53:50.240Z,7.76
2019-02-08T12:54:50.209Z,7.62
2019-02-08T12:55:50.187Z,7.76
2019-02-08T12:56:50.195Z,7.76
2019-02-08T12:57:50.202Z,7.66
2019-02-08T12:58:50.180Z,7.69
2019-02-08T12:59:50.162Z,7.67
2019-02-08T13:00:50.140Z,7.60
2019-02-08T13:01:50.128Z,7.57
2019-02-08T13:02:50.122Z,7.62
2019-02-08T13:03:50.143Z,7.60
2019-02-08T13:04:50.096Z,7.62
2019-02-08T13:05:50.100Z,7.57
2019-02-08T13:06:50.079Z,7.55
2019-02-08T13:07:50.061Z,7.54
2019-02-08T13:08:50.047Z,7.57
2019-02-08T13:09:50.073Z,7.55
2019-02-08T13:10:50.054Z,7.63
2019-02-08T13:11:50.020Z,7.62
2019-02-08T13:12:50.015Z,7.63
2019-02-08T13:13:50.054Z,7.63
2019-02-08T13:14:49.989Z,7.62
2019-02-08T13:15:50.002Z,7.63
2019-02-08T13:16:50.003Z,7.69
2019-02-08T13:17:49.956Z,7.62
2019-02-08T13:18:49.934Z,7.63